Time;durP1;ratioP1;P1;durP2;ratioP2;P2;SDS_P1;SDS_P2;PMS_P1;PMS_P2;Temp;Humidity;BMP_temperature;BMP_pressure;BME280_temperature;BME280_humidity;BME280_pressure;Samples;Min_cycle;Max_cycle;Signal;HPM_P1;HPM_P2
2022/01/20 00:01:58;;;;;;;24.33;4.37;;;5.60;99.90;;;;;;5100338;28;20231;-85
2022/01/20 00:04:33;;;;;;;19.60;3.97;;;5.60;99.90;;;;;;5102877;28;20220;-82
2022/01/20 00:26:51;;;;;;;22.53;4.37;;;5.20;99.90;;;;;;5079132;28;20248;-89
2022/01/20 00:29:29;;;;;;;17.43;4.70;;;5.20;99.90;;;;;;5079976;28;20190;-87
2022/01/20 00:32:08;;;;;;;17.10;4.27;;;5.20;99.90;;;;;;5080236;28;20237;-90
2022/01/20 00:37:22;;;;;;;19.17;4.70;;;5.10;99.90;;;;;;5080303;28;20194;-87
2022/01/20 00:39:50;;;;;;;17.70;5.00;;;5.00;99.90;;;;;;5080366;28;20202;-84
2022/01/20 00:42:23;;;;;;;30.70;5.27;;;4.90;99.90;;;;;;5080375;28;20664;-86
2022/01/20 00:44:51;;;;;;;30.90;5.27;;;4.90;99.90;;;;;;5080666;28;20208;-85
2022/01/20 00:47:19;;;;;;;18.67;5.03;;;4.90;99.90;;;;;;5081638;28;20209;-87
2022/01/20 00:49:48;;;;;;;16.73;4.27;;;5.00;99.90;;;;;;5083449;28;20206;-85
2022/01/20 00:52:18;;;;;;;24.37;4.50;;;5.00;99.90;;;;;;5083027;28;20212;-82
2022/01/20 00:54:46;;;;;;;17.87;3.80;;;5.00;99.90;;;;;;5080491;28;20202;-86
2022/01/20 00:57:13;;;;;;;10.63;2.30;;;5.00;99.90;;;;;;5086018;28;20204;-89
2022/01/20 00:59:57;;;;;;;19.23;3.17;;;5.10;99.90;;;;;;5085586;28;20446;-85
2022/01/20 01:02:30;;;;;;;18.50;4.60;;;5.30;99.90;;;;;;5086877;28;20450;-85
2022/01/20 01:05:04;;;;;;;15.83;4.17;;;5.30;99.90;;;;;;5081400;28;20198;-85
2022/01/20 01:07:46;;;;;;;23.13;4.73;;;5.10;99.90;;;;;;5078626;28;20441;-87
2022/01/20 01:10:15;;;;;;;21.47;4.33;;;5.00;99.90;;;;;;5084973;28;20439;-84
2022/01/20 01:12:56;;;;;;;14.80;3.40;;;5.00;99.90;;;;;;5082059;28;20209;-84
2022/01/20 01:15:30;;;;;;;15.67;3.10;;;5.00;99.90;;;;;;5081589;28;20442;-84
2022/01/20 01:21:13;;;;;;;17.40;3.70;;;5.10;99.90;;;;;;5082463;28;20445;-88
2022/01/20 01:23:46;;;;;;;15.88;3.63;;;5.10;99.90;;;;;;5081902;28;20876;-88
2022/01/20 01:26:24;;;;;;;21.17;3.70;;;5.20;99.90;;;;;;5083278;28;20568;-85
2022/01/20 01:28:59;;;;;;;19.47;2.50;;;5.30;99.90;;;;;;5082683;28;20636;-80
2022/01/20 01:31:39;;;;;;;14.07;2.90;;;5.30;99.90;;;;;;5082910;28;20197;-85
2022/01/20 01:34:09;;;;;;;14.50;3.33;;;5.20;99.90;;;;;;5084275;28;20275;-85
2022/01/20 01:37:04;;;;;;;16.77;2.70;;;5.20;99.90;;;;;;5082924;28;20440;-84
2022/01/20 01:39:37;;;;;;;9.53;2.50;;;5.20;99.90;;;;;;5081822;28;20206;-87
2022/01/20 01:42:08;;;;;;;12.77;3.07;;;5.20;99.90;;;;;;5081431;28;20473;-85
2022/01/20 01:44:38;;;;;;;7.43;2.30;;;5.20;99.90;;;;;;5082026;28;20204;-83
2022/01/20 01:47:05;;;;;;;7.60;1.87;;;5.20;99.90;;;;;;5081456;28;20267;-82
2022/01/20 01:49:32;;;;;;;5.70;1.80;;;5.10;99.90;;;;;;5081538;28;20441;-83
2022/01/20 01:52:00;;;;;;;11.33;2.00;;;5.20;99.90;;;;;;5080206;28;20228;-85
2022/01/20 01:54:30;;;;;;;6.73;1.53;;;5.20;99.90;;;;;;5081967;28;20221;-82
2022/01/20 01:57:06;;;;;;;6.73;1.87;;;5.20;99.90;;;;;;5082808;28;20277;-84
2022/01/20 01:59:34;;;;;;;10.93;2.10;;;5.20;99.90;;;;;;5081831;28;20193;-85
2022/01/20 02:02:02;;;;;;;9.00;1.97;;;5.20;99.90;;;;;;5081161;28;20202;-84
2022/01/20 02:04:29;;;;;;;9.63;2.00;;;5.30;99.90;;;;;;5080900;28;20305;-85
2022/01/20 02:07:27;;;;;;;8.00;2.03;;;5.20;99.90;;;;;;5081489;28;20206;-85
2022/01/20 02:18:36;;;;;;;8.57;1.90;;;5.20;99.90;;;;;;5084684;28;20560;-81
2022/01/20 02:21:09;;;;;;;9.20;2.53;;;5.20;99.90;;;;;;5083761;28;20235;-85
2022/01/20 02:23:36;;;;;;;9.87;1.97;;;5.30;99.90;;;;;;5096999;28;20209;-83
2022/01/20 02:26:04;;;;;;;4.47;1.57;;;5.30;99.90;;;;;;5103395;28;20190;-84
2022/01/20 02:28:32;;;;;;;5.20;1.40;;;5.20;99.90;;;;;;5104815;28;20216;-83
2022/01/20 02:30:59;;;;;;;7.77;1.50;;;5.20;99.90;;;;;;5104178;28;20211;-83
2022/01/20 02:33:29;;;;;;;8.13;1.70;;;5.20;99.90;;;;;;5104361;28;20237;-85
2022/01/20 02:36:01;;;;;;;9.63;1.70;;;5.10;99.90;;;;;;5103020;28;20200;-88
2022/01/20 02:38:35;;;;;;;6.20;1.50;;;5.10;99.90;;;;;;5105394;28;20274;-85
2022/01/20 02:46:37;;;;;;;6.90;1.50;;;5.00;99.90;;;;;;5098100;28;20216;-87
2022/01/20 02:49:04;;;;;;;12.73;1.93;;;4.90;99.90;;;;;;5102658;28;20664;-83
2022/01/20 02:51:31;;;;;;;6.80;1.60;;;4.90;99.90;;;;;;5102241;28;20204;-83
2022/01/20 02:54:12;;;;;;;10.47;2.27;;;4.80;99.90;;;;;;5102436;28;20227;-86
2022/01/20 02:56:39;;;;;;;13.27;2.20;;;4.80;99.90;;;;;;5101984;28;20237;-83
2022/01/20 02:59:07;;;;;;;8.37;1.80;;;4.80;99.90;;;;;;5103091;28;20208;-84
2022/01/20 03:01:40;;;;;;;10.60;2.37;;;4.70;99.90;;;;;;5102508;28;20189;-84
2022/01/20 03:04:09;;;;;;;10.17;1.80;;;4.70;99.90;;;;;;5103289;28;20201;-87
2022/01/20 03:06:38;;;;;;;10.73;2.07;;;4.70;99.90;;;;;;5103697;28;20449;-85
2022/01/20 03:09:06;;;;;;;11.33;3.03;;;4.70;99.90;;;;;;5102470;28;20230;-85
2022/01/20 03:11:33;;;;;;;4.73;1.93;;;4.70;99.90;;;;;;5103661;28;20185;-89
2022/01/20 03:14:01;;;;;;;11.43;2.23;;;4.80;99.90;;;;;;5105688;28;20488;-82
2022/01/20 03:16:29;;;;;;;8.93;2.47;;;4.80;99.90;;;;;;5103787;28;20212;-83
2022/01/20 03:18:56;;;;;;;12.33;2.80;;;4.60;99.90;;;;;;5103521;28;20799;-88
2022/01/20 03:21:25;;;;;;;11.80;2.40;;;4.70;99.90;;;;;;5101975;28;20933;-87
2022/01/20 03:23:52;;;;;;;12.73;2.67;;;4.70;99.90;;;;;;5116718;28;20456;-84
2022/01/20 03:26:21;;;;;;;8.53;2.67;;;4.70;99.90;;;;;;5123821;28;20437;-82
2022/01/20 03:28:48;;;;;;;10.03;2.80;;;4.70;99.90;;;;;;5126670;28;20457;-85
2022/01/20 03:31:21;;;;;;;14.97;3.43;;;4.80;99.90;;;;;;5123086;28;20480;-84
2022/01/20 03:33:49;;;;;;;13.17;2.17;;;4.80;99.90;;;;;;5124169;28;20468;-87
2022/01/20 03:36:17;;;;;;;9.40;2.80;;;4.80;99.90;;;;;;5125356;28;20449;-84
2022/01/20 03:38:48;;;;;;;8.97;2.00;;;4.70;99.90;;;;;;5124654;28;20451;-84
2022/01/20 03:41:22;;;;;;;10.90;2.13;;;4.80;99.90;;;;;;5124281;28;20866;-85
2022/01/20 03:43:55;;;;;;;13.13;2.37;;;5.00;99.90;;;;;;5120968;28;20436;-83
2022/01/20 03:46:24;;;;;;;13.80;2.30;;;4.80;99.90;;;;;;5121691;28;20463;-87
2022/01/20 03:48:53;;;;;;;14.97;2.30;;;4.80;99.90;;;;;;5118555;28;20480;-90
2022/01/20 03:51:23;;;;;;;13.27;2.33;;;4.90;99.90;;;;;;5118755;28;20719;-90
2022/01/20 03:53:52;;;;;;;11.57;2.57;;;5.00;99.90;;;;;;5120128;28;20479;-86
2022/01/20 03:56:26;;;;;;;13.77;2.40;;;5.00;99.90;;;;;;5119005;28;20200;-86
2022/01/20 03:58:59;;;;;;;7.20;2.13;;;5.00;99.90;;;;;;5116651;28;20211;-86
2022/01/20 04:01:26;;;;;;;8.90;2.23;;;5.10;99.90;;;;;;5116902;28;20205;-86
2022/01/20 04:03:54;;;;;;;13.87;2.53;;;5.10;99.90;;;;;;5117187;28;20193;-85
2022/01/20 04:06:24;;;;;;;9.10;3.10;;;5.10;99.90;;;;;;5118947;28;20200;-86
2022/01/20 04:08:55;;;;;;;13.17;2.47;;;5.00;99.90;;;;;;5118958;28;20325;-87
2022/01/20 04:11:24;;;;;;;5.77;2.17;;;5.00;99.90;;;;;;5120205;28;20212;-87
2022/01/20 04:13:53;;;;;;;11.50;2.50;;;5.10;99.90;;;;;;5120063;28;20481;-85
2022/01/20 04:16:30;;;;;;;10.40;2.13;;;5.10;99.90;;;;;;5123092;28;20271;-84
2022/01/20 04:18:59;;;;;;;10.27;2.30;;;5.10;99.90;;;;;;5121439;28;20249;-88
2022/01/20 04:21:29;;;;;;;9.87;2.50;;;5.10;99.90;;;;;;5123167;28;20205;-87
2022/01/20 04:23:58;;;;;;;12.63;2.60;;;5.10;99.90;;;;;;5117095;28;20213;-90
2022/01/20 04:26:31;;;;;;;13.47;2.47;;;5.10;99.90;;;;;;5101645;28;20193;-87
2022/01/20 04:29:00;;;;;;;14.30;2.40;;;4.90;99.90;;;;;;5100159;28;20249;-86
2022/01/20 04:31:35;;;;;;;12.40;2.70;;;4.90;99.90;;;;;;5099676;28;20220;-87
2022/01/20 04:34:02;;;;;;;17.73;3.10;;;4.90;99.90;;;;;;5101161;28;20224;-85
2022/01/20 04:36:33;;;;;;;10.97;2.90;;;4.90;99.90;;;;;;5101259;28;20192;-90
2022/01/20 04:39:01;;;;;;;10.00;2.93;;;4.80;99.90;;;;;;5100886;28;20212;-86
2022/01/20 04:41:35;;;;;;;12.90;3.00;;;4.80;99.90;;;;;;5100812;28;20197;-84
2022/01/20 04:44:11;;;;;;;15.10;3.00;;;4.80;99.90;;;;;;5101195;28;20236;-85
2022/01/20 04:46:43;;;;;;;18.23;4.67;;;4.80;99.90;;;;;;5099997;28;20636;-88
2022/01/20 04:57:02;;;;;;;14.70;3.33;;;4.80;99.90;;;;;;5100771;28;20651;-84
2022/01/20 04:57:32;;;;;;;20.00;3.77;;;4.80;99.90;;;;;;5099147;28;20189;-89
2022/01/20 05:00:00;;;;;;;14.80;3.63;;;4.90;99.90;;;;;;5100014;28;20614;-87
2022/01/20 05:02:29;;;;;;;16.83;4.05;;;4.90;99.90;;;;;;5098041;28;20430;-86
2022/01/20 05:04:56;;;;;;;18.37;3.40;;;4.80;99.90;;;;;;5097953;28;20201;-91
2022/01/20 05:07:33;;;;;;;16.27;3.37;;;4.90;99.90;;;;;;5100427;28;20234;-84
2022/01/20 05:10:07;;;;;;;13.70;3.00;;;4.90;99.90;;;;;;5101135;28;20979;-88
2022/01/20 05:13:02;;;;;;;16.60;3.33;;;4.90;99.90;;;;;;5099412;28;20450;-87
2022/01/20 05:15:31;;;;;;;14.80;3.17;;;4.80;99.90;;;;;;5100428;28;21063;-88
2022/01/20 05:18:12;;;;;;;15.03;3.43;;;4.90;99.90;;;;;;5100272;28;20949;-87
2022/01/20 05:20:45;;;;;;;18.23;3.63;;;5.00;99.90;;;;;;5099902;28;20479;-85
2022/01/20 05:23:12;;;;;;;10.93;3.03;;;4.90;99.90;;;;;;5099944;28;20531;-86
2022/01/20 05:25:40;;;;;;;13.73;3.20;;;5.00;99.90;;;;;;5099302;28;20445;-83
2022/01/20 05:28:07;;;;;;;11.67;2.80;;;5.00;99.90;;;;;;5100270;28;20445;-86
2022/01/20 05:30:41;;;;;;;17.03;3.43;;;5.10;99.90;;;;;;5097542;28;20449;-85
2022/01/20 05:33:09;;;;;;;20.00;3.67;;;5.00;99.90;;;;;;5116281;28;20466;-91
2022/01/20 05:35:36;;;;;;;16.03;4.30;;;4.90;99.90;;;;;;5115245;28;20485;-80
2022/01/20 05:38:03;;;;;;;15.60;3.33;;;4.90;99.90;;;;;;5118517;28;20482;-86
2022/01/20 05:40:34;;;;;;;17.47;3.37;;;4.90;99.90;;;;;;5120123;28;20447;-86
2022/01/20 05:43:04;;;;;;;12.70;2.60;;;5.00;99.90;;;;;;5119319;28;20916;-84
2022/01/20 05:45:35;;;;;;;15.57;3.87;;;4.90;99.90;;;;;;5119508;28;20441;-86
2022/01/20 05:48:14;;;;;;;12.03;2.67;;;5.00;99.90;;;;;;5123190;28;20452;-87
2022/01/20 05:50:45;;;;;;;20.70;3.67;;;5.00;99.90;;;;;;5120126;28;20769;-86
2022/01/20 05:53:20;;;;;;;19.60;3.23;;;5.00;99.90;;;;;;5119482;28;20440;-86
2022/01/20 05:55:53;;;;;;;16.87;4.17;;;4.90;99.90;;;;;;5120149;28;20486;-87
2022/01/20 05:58:36;;;;;;;13.67;3.00;;;5.10;99.90;;;;;;5120542;28;20445;-84
2022/01/20 06:01:04;;;;;;;15.97;3.93;;;5.00;99.90;;;;;;5113923;28;20468;-86
2022/01/20 06:03:39;;;;;;;11.93;3.27;;;5.00;99.90;;;;;;5100353;28;20979;-86
2022/01/20 06:06:07;;;;;;;17.77;3.03;;;5.10;99.90;;;;;;5097975;28;20202;-87
2022/01/20 06:08:44;;;;;;;16.10;3.47;;;5.00;99.90;;;;;;5095686;28;20208;-85
2022/01/20 06:11:18;;;;;;;15.33;3.47;;;5.00;99.90;;;;;;5097654;28;20445;-87
2022/01/20 06:13:51;;;;;;;12.93;2.93;;;4.90;99.90;;;;;;5097328;28;20445;-85
2022/01/20 06:16:24;;;;;;;14.00;3.55;;;4.80;99.90;;;;;;5095554;28;20435;-85
2022/01/20 06:18:56;;;;;;;19.00;3.73;;;4.80;99.90;;;;;;5096567;28;20201;-83
2022/01/20 06:21:25;;;;;;;14.60;3.73;;;4.80;99.90;;;;;;5098990;28;20437;-86
2022/01/20 06:24:15;;;;;;;18.70;3.97;;;4.80;99.90;;;;;;5099541;28;20437;-85
2022/01/20 06:27:00;;;;;;;13.93;3.43;;;4.70;99.90;;;;;;5098182;28;20311;-85
2022/01/20 06:29:30;;;;;;;9.50;2.83;;;4.80;99.90;;;;;;5099301;28;20428;-85
2022/01/20 06:32:04;;;;;;;17.90;4.20;;;4.90;99.90;;;;;;5097454;28;20473;-86
2022/01/20 06:34:34;;;;;;;12.17;2.73;;;4.90;99.90;;;;;;5099223;28;20484;-88
2022/01/20 06:37:22;;;;;;;12.30;2.40;;;4.90;99.90;;;;;;5099696;28;20461;-87
2022/01/20 06:39:52;;;;;;;11.67;3.13;;;4.90;99.90;;;;;;5097645;28;20503;-87
2022/01/20 06:42:20;;;;;;;20.47;3.30;;;5.00;99.90;;;;;;5098404;28;20216;-88
2022/01/20 06:44:53;;;;;;;21.40;4.00;;;5.00;99.90;;;;;;5098675;28;20205;-87
2022/01/20 06:47:37;;;;;;;17.10;2.53;;;5.00;99.90;;;;;;5094877;28;20450;-84
2022/01/20 06:50:08;;;;;;;18.17;2.90;;;4.90;99.90;;;;;;5094422;28;20197;-82
2022/01/20 06:52:36;;;;;;;15.85;2.97;;;4.90;99.90;;;;;;5096687;28;20441;-86
2022/01/20 06:55:10;;;;;;;12.10;2.60;;;5.00;99.90;;;;;;5078493;28;20336;-85
2022/01/20 06:57:41;;;;;;;8.70;2.13;;;5.10;99.90;;;;;;5094357;28;20386;-86
2022/01/20 07:00:20;;;;;;;11.03;3.97;;;5.00;99.90;;;;;;5100521;28;20453;-87
2022/01/20 07:02:48;;;;;;;12.13;1.50;;;5.00;99.90;;;;;;5097729;28;20208;-83
2022/01/20 07:05:21;;;;;;;11.70;1.63;;;4.90;99.90;;;;;;5100381;28;20437;-86
2022/01/20 07:07:50;;;;;;;9.00;1.93;;;4.80;99.90;;;;;;5100297;28;20558;-86
2022/01/20 07:10:20;;;;;;;8.63;1.80;;;4.80;99.90;;;;;;5098809;28;20546;-86
2022/01/20 07:12:48;;;;;;;11.30;1.93;;;4.70;99.90;;;;;;5098958;28;20437;-88
2022/01/20 07:15:21;;;;;;;11.33;2.17;;;4.80;99.90;;;;;;5097829;28;20996;-87
2022/01/20 07:17:50;;;;;;;11.47;1.77;;;4.70;99.90;;;;;;5097296;28;20858;-86
2022/01/20 07:20:22;;;;;;;13.93;3.13;;;4.70;99.90;;;;;;5097270;28;20205;-85
2022/01/20 07:22:49;;;;;;;12.10;2.63;;;4.80;99.90;;;;;;5098268;28;20441;-87
2022/01/20 07:25:22;;;;;;;9.33;2.07;;;4.80;99.90;;;;;;5098343;28;20445;-86
2022/01/20 07:27:51;;;;;;;9.90;2.20;;;4.70;99.90;;;;;;5097873;28;20901;-85
2022/01/20 07:30:19;;;;;;;8.47;1.80;;;4.70;99.90;;;;;;5098022;28;20457;-87
2022/01/20 07:32:52;;;;;;;15.50;2.43;;;4.70;99.90;;;;;;5098232;28;20465;-82
2022/01/20 07:35:21;;;;;;;11.13;2.20;;;4.80;99.90;;;;;;5097367;28;20216;-86
2022/01/20 07:37:53;;;;;;;13.43;2.40;;;4.70;99.90;;;;;;5097521;28;20577;-86
2022/01/20 07:40:22;;;;;;;19.27;3.43;;;4.80;99.90;;;;;;5098062;28;20671;-84
2022/01/20 07:42:51;;;;;;;12.73;2.53;;;4.60;99.90;;;;;;5097392;28;20449;-86
2022/01/20 07:45:21;;;;;;;17.10;2.73;;;4.40;99.90;;;;;;5098219;28;20430;-87
2022/01/20 07:47:48;;;;;;;15.03;2.30;;;4.40;99.90;;;;;;5110773;28;20480;-84
2022/01/20 07:50:15;;;;;;;25.60;3.20;;;4.40;99.90;;;;;;5096009;28;20533;-81
2022/01/20 07:52:44;;;;;;;12.97;2.50;;;4.40;99.90;;;;;;5095675;28;20453;-84
2022/01/20 07:55:11;;;;;;;18.13;3.03;;;4.40;99.90;;;;;;5096215;28;20488;-86
2022/01/20 07:57:40;;;;;;;21.17;3.27;;;4.40;99.90;;;;;;5095719;28;20437;-84
2022/01/20 08:00:09;;;;;;;23.13;3.33;;;4.50;99.90;;;;;;5095377;28;20430;-84
2022/01/20 08:02:37;;;;;;;10.10;3.17;;;4.50;99.90;;;;;;5110472;28;20444;-83
2022/01/20 08:05:04;;;;;;;12.07;2.57;;;4.50;99.90;;;;;;5116023;28;20456;-84
2022/01/20 08:07:33;;;;;;;23.67;4.73;;;4.30;99.90;;;;;;5114217;28;20478;-86
2022/01/20 08:10:03;;;;;;;21.70;3.53;;;4.50;99.90;;;;;;5113820;28;20444;-85
2022/01/20 08:12:32;;;;;;;16.73;2.80;;;4.50;99.90;;;;;;5113550;28;20196;-87
2022/01/20 08:15:01;;;;;;;17.03;3.20;;;4.60;99.90;;;;;;5099097;28;20229;-87
2022/01/20 08:17:28;;;;;;;21.63;3.47;;;4.50;99.90;;;;;;5100560;28;20611;-89
2022/01/20 08:19:55;;;;;;;15.13;3.47;;;4.60;99.90;;;;;;5097947;28;21233;-92
2022/01/20 08:22:31;;;;;;;18.63;2.97;;;4.70;99.90;;;;;;5098418;28;20432;-92
2022/01/20 08:25:07;;;;;;;14.30;3.00;;;4.70;99.90;;;;;;5098434;28;20472;-90
2022/01/20 08:27:34;;;;;;;19.30;3.27;;;4.80;99.90;;;;;;5097040;28;20441;-89
2022/01/20 08:30:05;;;;;;;15.87;3.47;;;4.70;99.90;;;;;;5109169;28;20438;-89
2022/01/20 08:32:32;;;;;;;18.37;3.80;;;4.70;99.90;;;;;;5103078;28;20471;-89
2022/01/20 08:35:04;;;;;;;16.83;3.30;;;4.80;99.90;;;;;;5107255;28;20837;-91
2022/01/20 08:37:40;;;;;;;14.60;3.17;;;4.80;99.90;;;;;;5106220;28;20445;-92
2022/01/20 08:40:22;;;;;;;12.33;3.47;;;4.70;99.90;;;;;;5103616;28;20929;-91
2022/01/20 08:42:50;;;;;;;20.97;3.97;;;4.70;99.90;;;;;;5094243;28;20771;-89
2022/01/20 08:45:22;;;;;;;23.90;5.17;;;4.70;99.90;;;;;;5095133;28;20205;-90
2022/01/20 08:47:54;;;;;;;16.43;4.07;;;4.70;99.90;;;;;;5093658;28;20502;-88
2022/01/20 08:50:25;;;;;;;14.40;3.60;;;4.60;99.90;;;;;;5095287;28;20434;-88
2022/01/20 08:53:12;;;;;;;16.17;3.70;;;4.90;99.90;;;;;;5095448;28;20189;-90
2022/01/20 08:55:41;;;;;;;29.00;5.30;;;4.90;99.90;;;;;;5095194;28;20229;-90
2022/01/20 08:58:08;;;;;;;22.17;4.33;;;5.10;99.90;;;;;;5094545;28;20460;-89
2022/01/20 09:00:49;;;;;;;23.27;4.03;;;4.90;99.90;;;;;;5094741;28;20446;-90
2022/01/20 09:03:17;;;;;;;29.07;5.43;;;5.00;99.90;;;;;;5094946;28;20201;-89
2022/01/20 09:05:45;;;;;;;25.50;5.80;;;5.00;99.90;;;;;;5095150;28;20209;-89
2022/01/20 09:08:18;;;;;;;23.97;4.87;;;5.20;99.90;;;;;;5094522;28;20441;-90
2022/01/20 09:10:55;;;;;;;19.10;4.17;;;5.20;99.90;;;;;;5094876;28;20246;-90
2022/01/20 09:16:08;;;;;;;22.60;3.63;;;5.10;99.90;;;;;;5093955;28;20230;-88
2022/01/20 09:18:37;;;;;;;21.77;4.70;;;5.20;99.90;;;;;;5093939;28;20201;-89
2022/01/20 09:21:10;;;;;;;15.87;3.73;;;5.10;99.90;;;;;;5094547;28;20426;-88
2022/01/20 09:23:37;;;;;;;21.70;4.00;;;5.10;99.90;;;;;;5094900;28;20456;-89
2022/01/20 09:26:08;;;;;;;27.60;3.90;;;5.10;99.90;;;;;;5093960;28;20201;-92
2022/01/20 09:28:35;;;;;;;29.17;5.07;;;5.20;99.90;;;;;;5094907;28;20212;-87
2022/01/20 09:31:06;;;;;;;20.90;4.30;;;5.20;99.90;;;;;;5095236;28;20205;-89
2022/01/20 09:33:33;;;;;;;18.07;3.30;;;5.20;99.90;;;;;;5094935;28;20296;-88
2022/01/20 09:36:09;;;;;;;17.07;3.03;;;5.30;99.90;;;;;;5094915;28;20228;-90
2022/01/20 09:38:38;;;;;;;17.70;3.90;;;5.40;99.90;;;;;;5094584;28;20453;-88
2022/01/20 09:41:12;;;;;;;12.97;3.27;;;5.20;99.90;;;;;;5094752;28;20193;-91
2022/01/20 09:43:42;;;;;;;13.77;2.97;;;5.50;99.90;;;;;;5095195;28;20184;-89
2022/01/20 09:46:10;;;;;;;15.23;3.50;;;5.50;99.90;;;;;;5095527;28;20256;-90
2022/01/20 09:48:43;;;;;;;13.97;3.20;;;5.40;99.90;;;;;;5095893;28;20277;-90
2022/01/20 09:51:16;;;;;;;9.60;2.33;;;5.20;99.90;;;;;;5095225;28;20205;-89
2022/01/20 09:53:42;;;;;;;7.40;1.90;;;5.20;99.90;;;;;;5095483;28;20208;-89
2022/01/20 09:56:14;;;;;;;10.13;2.50;;;5.10;99.90;;;;;;5093227;28;20286;-87
2022/01/20 09:58:47;;;;;;;10.27;2.67;;;5.10;99.90;;;;;;5092717;28;20426;-89
2022/01/20 10:01:33;;;;;;;11.57;2.10;;;5.30;99.90;;;;;;5093770;28;20230;-83
2022/01/20 10:04:06;;;;;;;7.67;1.93;;;5.20;99.90;;;;;;5093589;28;20200;-85
2022/01/20 10:06:36;;;;;;;13.23;2.23;;;5.10;99.90;;;;;;5093645;28;20197;-86
2022/01/20 10:09:05;;;;;;;7.97;1.70;;;5.10;99.90;;;;;;5094642;28;20189;-86
2022/01/20 10:11:34;;;;;;;7.60;1.93;;;5.30;99.90;;;;;;5093496;28;20209;-86
2022/01/20 10:14:08;;;;;;;9.90;2.60;;;5.50;99.90;;;;;;5094480;28;20243;-87
2022/01/20 10:16:38;;;;;;;8.43;2.10;;;5.50;99.90;;;;;;5093739;28;20860;-88
2022/01/20 10:19:30;;;;;;;7.63;2.50;;;5.60;99.90;;;;;;5094346;28;20197;-86
2022/01/20 10:21:58;;;;;;;13.03;2.73;;;5.80;99.90;;;;;;5105596;28;20197;-90
2022/01/20 10:24:32;;;;;;;10.27;2.37;;;5.80;99.90;;;;;;5093995;28;20197;-88
2022/01/20 10:27:11;;;;;;;10.63;2.60;;;5.70;99.90;;;;;;5107247;28;20196;-92
2022/01/20 10:29:56;;;;;;;9.40;2.60;;;5.60;99.90;;;;;;5115822;28;20201;-92
2022/01/20 10:32:40;;;;;;;4.80;1.70;;;5.40;99.90;;;;;;5115955;28;20221;-89
2022/01/20 10:35:10;;;;;;;8.60;2.60;;;5.30;99.90;;;;;;5112137;28;20410;-91
2022/01/20 10:37:43;;;;;;;8.73;2.20;;;5.30;99.90;;;;;;5117133;28;20224;-87
2022/01/20 10:40:12;;;;;;;9.07;2.20;;;5.20;99.90;;;;;;5106761;28;20204;-88
2022/01/20 10:42:42;;;;;;;13.37;1.87;;;5.20;99.90;;;;;;5095231;28;20197;-87
2022/01/20 10:45:19;;;;;;;10.60;2.33;;;5.10;99.90;;;;;;5096322;28;20686;-87
2022/01/20 10:47:49;;;;;;;15.00;2.63;;;5.10;99.90;;;;;;5097744;28;20217;-88
2022/01/20 10:50:21;;;;;;;8.43;2.20;;;5.20;99.90;;;;;;5097428;28;20215;-88
2022/01/20 10:52:49;;;;;;;9.00;2.27;;;5.20;99.90;;;;;;5097222;28;20229;-89
2022/01/20 10:55:21;;;;;;;11.37;2.40;;;5.20;99.90;;;;;;5097308;28;20661;-88
2022/01/20 10:57:51;;;;;;;10.07;2.07;;;5.30;99.90;;;;;;5097419;28;20211;-87
2022/01/20 11:00:20;;;;;;;7.90;2.10;;;5.50;99.90;;;;;;5097644;28;20586;-89
2022/01/20 11:02:52;;;;;;;12.30;2.70;;;5.70;99.90;;;;;;5096781;28;20208;-91
2022/01/20 11:05:20;;;;;;;13.73;2.50;;;5.60;99.90;;;;;;5097538;28;20201;-90
2022/01/20 11:07:47;;;;;;;15.93;2.43;;;5.60;99.90;;;;;;5097376;28;20235;-88
2022/01/20 11:10:14;;;;;;;13.18;3.28;;;5.60;99.90;;;;;;5096910;28;20518;-88
2022/01/20 11:12:41;;;;;;;15.23;2.43;;;5.60;99.90;;;;;;5097076;28;20236;-88
2022/01/20 11:15:15;;;;;;;9.03;2.00;;;5.60;99.90;;;;;;5097046;28;20209;-88
2022/01/20 11:17:42;;;;;;;12.37;2.60;;;5.70;99.90;;;;;;5096613;28;20229;-87
2022/01/20 11:20:15;;;;;;;10.07;2.40;;;5.90;99.90;;;;;;5097402;28;20205;-90
2022/01/20 11:22:52;;;;;;;9.40;2.57;;;6.10;99.90;;;;;;5100585;28;20660;-88
2022/01/20 11:25:21;;;;;;;10.93;2.00;;;6.00;99.90;;;;;;5098232;28;20249;-88
2022/01/20 11:27:51;;;;;;;12.63;2.57;;;6.10;99.90;;;;;;5098551;28;20676;-89
2022/01/20 11:30:21;;;;;;;13.17;2.43;;;6.10;99.90;;;;;;5108438;28;20209;-89
2022/01/20 11:33:00;;;;;;;10.17;1.97;;;5.90;99.90;;;;;;5108980;28;20276;-87
2022/01/20 11:35:44;;;;;;;15.50;2.23;;;6.00;99.90;;;;;;5107664;28;20205;-88
2022/01/20 11:38:13;;;;;;;16.53;1.90;;;5.90;99.90;;;;;;5107265;28;20205;-89
2022/01/20 11:41:04;;;;;;;7.57;2.63;;;5.70;99.90;;;;;;5098305;28;20200;-88
2022/01/20 11:43:36;;;;;;;11.77;2.37;;;5.50;99.90;;;;;;5087645;28;20303;-85
2022/01/20 11:46:13;;;;;;;9.30;2.17;;;5.10;99.90;;;;;;5097741;28;20193;-89
2022/01/20 11:48:56;;;;;;;17.60;2.17;;;4.90;99.90;;;;;;5095653;28;20485;-90
2022/01/20 11:51:25;;;;;;;6.50;1.13;;;4.80;99.90;;;;;;5094872;28;20456;-90
2022/01/20 11:54:01;;;;;;;9.90;1.83;;;4.80;99.90;;;;;;5096394;28;20449;-88
2022/01/20 11:56:33;;;;;;;5.63;1.60;;;4.80;99.90;;;;;;5094596;28;21052;-86
2022/01/20 11:59:00;;;;;;;5.80;1.43;;;4.90;99.90;;;;;;5096362;28;20488;-88
2022/01/20 12:01:30;;;;;;;7.23;1.40;;;4.90;99.90;;;;;;5096353;28;20457;-88
2022/01/20 12:03:58;;;;;;;5.37;1.53;;;4.90;99.90;;;;;;5095719;28;20453;-89
2022/01/20 12:06:27;;;;;;;10.77;1.70;;;4.90;99.90;;;;;;5095923;28;20473;-88
2022/01/20 12:08:56;;;;;;;7.17;1.53;;;4.90;99.90;;;;;;5096005;28;20995;-91
2022/01/20 12:11:34;;;;;;;7.47;1.43;;;4.90;99.90;;;;;;5096191;28;20450;-88
2022/01/20 12:14:04;;;;;;;6.27;1.83;;;5.00;99.90;;;;;;5096157;28;20458;-89
2022/01/20 12:16:34;;;;;;;11.53;2.20;;;5.10;99.90;;;;;;5095447;28;20488;-91
2022/01/20 12:19:03;;;;;;;8.20;2.10;;;5.20;99.90;;;;;;5095082;28;20216;-89
2022/01/20 12:21:33;;;;;;;8.80;2.07;;;5.40;99.90;;;;;;5095548;28;20231;-86
2022/01/20 12:24:02;;;;;;;6.30;2.55;;;5.30;99.90;;;;;;5094391;28;20426;-88
2022/01/20 12:26:34;;;;;;;10.70;2.87;;;5.50;99.90;;;;;;5094874;28;20205;-87
2022/01/20 12:29:09;;;;;;;10.23;3.03;;;5.50;99.90;;;;;;5095530;28;20201;-87
2022/01/20 12:31:48;;;;;;;9.33;1.63;;;5.70;99.90;;;;;;5094859;28;20231;-87
2022/01/20 12:34:16;;;;;;;10.97;2.40;;;5.80;99.90;;;;;;5095090;28;20195;-88
2022/01/20 12:36:52;;;;;;;6.27;1.77;;;5.80;99.90;;;;;;5095007;28;20235;-88
2022/01/20 12:39:25;;;;;;;17.50;2.43;;;5.90;99.90;;;;;;5095123;28;20201;-88
2022/01/20 12:41:57;;;;;;;7.23;1.97;;;5.90;99.90;;;;;;5095395;28;20189;-87
2022/01/20 12:44:48;;;;;;;7.53;2.07;;;6.00;99.90;;;;;;5109135;28;20196;-88
2022/01/20 12:47:18;;;;;;;9.77;2.10;;;6.00;99.90;;;;;;5115715;28;20215;-88
2022/01/20 12:49:57;;;;;;;8.10;2.53;;;6.10;99.90;;;;;;5115334;28;20208;-88
2022/01/20 12:52:31;;;;;;;10.00;2.00;;;6.20;99.90;;;;;;5115635;28;20205;-82
2022/01/20 12:55:02;;;;;;;9.60;1.93;;;6.40;99.90;;;;;;5115104;28;20657;-87
2022/01/20 12:57:35;;;;;;;6.87;1.50;;;6.40;99.90;;;;;;5113728;28;20228;-87
2022/01/20 13:00:08;;;;;;;7.88;2.20;;;6.50;99.90;;;;;;5113562;28;20414;-87
2022/01/20 13:02:40;;;;;;;4.63;1.30;;;6.50;99.90;;;;;;5115514;28;20196;-89
2022/01/20 13:05:08;;;;;;;10.47;2.17;;;6.40;99.90;;;;;;5115174;28;20207;-89
2022/01/20 13:07:38;;;;;;;5.03;1.30;;;6.40;99.90;;;;;;5110539;28;20223;-90
2022/01/20 13:10:21;;;;;;;3.60;1.20;;;6.50;99.90;;;;;;5100059;28;20190;-89
2022/01/20 13:12:51;;;;;;;8.77;1.63;;;6.50;99.90;;;;;;5074382;28;20202;-87
2022/01/20 13:15:32;;;;;;;6.20;1.50;;;6.40;99.90;;;;;;5074267;28;20201;-87
2022/01/20 13:18:06;;;;;;;7.00;1.53;;;6.50;99.90;;;;;;5083424;28;20683;-88
2022/01/20 13:20:40;;;;;;;9.10;2.43;;;6.60;99.90;;;;;;5096954;28;20593;-91
2022/01/20 13:23:54;;;;;;;8.23;2.07;;;6.60;99.90;;;;;;5093785;28;20673;-87
2022/01/20 13:26:04;;;;;;;6.27;2.00;;;6.70;99.90;;;;;;5096818;28;20201;-87
2022/01/20 13:28:35;;;;;;;7.03;1.87;;;6.70;99.90;;;;;;5094384;28;20717;-90
2022/01/20 13:31:14;;;;;;;7.53;1.80;;;6.80;99.90;;;;;;5092955;28;20217;-88
2022/01/20 13:33:44;;;;;;;6.47;1.80;;;6.70;99.90;;;;;;5089649;28;20239;-87
2022/01/20 13:36:13;;;;;;;5.40;1.50;;;6.80;99.90;;;;;;5093886;28;20213;-88
2022/01/20 13:38:48;;;;;;;4.83;1.60;;;6.90;99.90;;;;;;5094520;28;20679;-89
2022/01/20 13:41:19;;;;;;;7.87;1.83;;;6.80;99.90;;;;;;5094260;28;20665;-90
2022/01/20 13:46:41;;;;;;;7.07;1.40;;;6.50;99.90;;;;;;5091554;28;20196;-89
2022/01/20 13:49:19;;;;;;;7.53;1.90;;;6.30;99.90;;;;;;5097132;28;20238;-88
2022/01/20 13:51:47;;;;;;;12.70;2.13;;;6.20;99.90;;;;;;5096852;28;20201;-87
2022/01/20 13:54:16;;;;;;;7.13;1.57;;;6.20;99.90;;;;;;5094061;28;20203;-87
2022/01/20 13:56:55;;;;;;;7.27;1.57;;;6.20;99.90;;;;;;5093333;28;20235;-87
2022/01/20 13:59:24;;;;;;;8.17;1.93;;;6.20;99.90;;;;;;5093734;28;20205;-87
2022/01/20 14:01:54;;;;;;;11.57;2.20;;;6.20;99.90;;;;;;5093373;28;20209;-86
2022/01/20 14:04:24;;;;;;;11.33;2.60;;;6.20;99.90;;;;;;5093572;28;20220;-87
2022/01/20 14:06:52;;;;;;;6.77;1.80;;;6.20;99.90;;;;;;5091545;28;20193;-87